Time,TemperatureF,DewpointF,PressureIn,WindDirection,WindDirectionDegrees,WindSpeedMPH,WindSpeedGustMPH,Humidity,HourlyPrecipIn,Conditions,Clouds,dailyrainin,SoftwareType,DateUTC
2013-05-12 00:02:00,39.0,23.0,-100.00,NW,320,10.0,18.0,53,-99.99,,,-99.99,,2013-05-12 05:02:00,
2013-05-12 00:12:00,39.0,23.0,-100.00,NW,320,10.0,18.0,53,-99.99,,,-99.99,,2013-05-12 05:12:00,
2013-05-12 00:22:00,39.0,23.0,-100.00,NW,320,10.0,18.0,53,-99.99,,,-99.99,,2013-05-12 05:22:00,
2013-05-12 00:52:00,39.0,24.0,-100.00,NNW,335,12.0,21.0,54,-99.99,,,-99.99,,2013-05-12 05:52:00,
2013-05-12 01:01:00,39.0,24.0,-100.00,NNW,335,12.0,21.0,54,-99.99,,,-99.99,,2013-05-12 06:01:00,
2013-05-12 01:11:00,39.0,24.0,-100.00,NNW,335,12.0,21.0,54,-99.99,,,-99.99,,2013-05-12 06:11:00,
2013-05-12 01:21:00,39.0,24.0,-100.00,NNW,335,12.0,21.0,54,-99.99,,,-99.99,,2013-05-12 06:21:00,
2013-05-12 01:52:00,39.0,24.0,-100.00,NNW,335,12.0,21.0,54,-99.99,,,-99.99,,2013-05-12 06:52:00,
2013-05-12 02:01:00,39.0,24.0,-100.00,NNW,335,12.0,21.0,54,-99.99,,,-99.99,,2013-05-12 07:01:00,
2013-05-12 02:11:00,39.0,24.0,-100.00,NNW,335,12.0,21.0,54,-99.99,,,-99.99,,2013-05-12 07:11:00,
2013-05-12 02:21:00,39.0,24.0,-100.00,NNW,335,12.0,21.0,54,-99.99,,,-99.99,,2013-05-12 07:21:00,
2013-05-12 02:52:00,39.0,24.0,-100.00,NNW,335,12.0,21.0,54,-99.99,,,-99.99,,2013-05-12 07:52:00,
2013-05-12 03:02:00,39.0,24.0,-100.00,NNW,335,12.0,21.0,54,-99.99,,,-99.99,,2013-05-12 08:02:00,
2013-05-12 03:11:00,39.0,24.0,-100.00,NNW,335,12.0,21.0,54,-99.99,,,-99.99,,2013-05-12 08:11:00,
2013-05-12 03:21:00,39.0,24.0,-100.00,NNW,335,12.0,21.0,54,-99.99,,,-99.99,,2013-05-12 08:21:00,
2013-05-12 03:53:00,39.0,24.0,-100.00,NNW,335,12.0,21.0,54,-99.99,,,-99.99,,2013-05-12 08:53:00,
2013-05-12 04:01:00,39.0,24.0,-100.00,NNW,335,12.0,21.0,54,-99.99,,,-99.99,,2013-05-12 09:01:00,
2013-05-12 04:11:00,39.0,24.0,-100.00,NNW,335,12.0,21.0,54,-99.99,,,-99.99,,2013-05-12 09:11:00,
2013-05-12 04:21:00,39.0,24.0,-100.00,NNW,335,12.0,21.0,54,-99.99,,,-99.99,,2013-05-12 09:21:00,
2013-05-12 04:43:00,39.0,24.0,-100.00,NNW,335,12.0,21.0,54,-99.99,,,-99.99,,2013-05-12 09:43:00,
2013-05-12 04:53:00,39.0,24.0,-100.00,NNW,335,12.0,21.0,54,-99.99,,,-99.99,,2013-05-12 09:53:00,
2013-05-12 05:03:00,39.0,24.0,-100.00,NNW,335,12.0,21.0,54,-99.99,,,-99.99,,2013-05-12 10:03:00,
2013-05-12 05:12:00,39.0,24.0,-100.00,NNW,335,12.0,21.0,54,-99.99,,,-99.99,,2013-05-12 10:12:00,
2013-05-12 05:22:00,39.0,24.0,-100.00,NNW,335,12.0,21.0,54,-99.99,,,-99.99,,2013-05-12 10:22:00,
2013-05-12 05:52:00,39.0,24.0,-100.00,NNW,335,12.0,21.0,54,-99.99,,,-99.99,,2013-05-12 10:52:00,
2013-05-12 06:02:00,39.0,24.0,-100.00,NNW,335,12.0,21.0,54,-99.99,,,-99.99,,2013-05-12 11:02:00,
2013-05-12 06:12:00,39.0,24.0,-100.00,NNW,335,12.0,21.0,54,-99.99,,,-99.99,,2013-05-12 11:12:00,
2013-05-12 06:22:00,39.0,24.0,-100.00,NNW,335,12.0,21.0,54,-99.99,,,-99.99,,2013-05-12 11:22:00,
2013-05-12 06:52:00,39.0,24.0,-100.00,NNW,335,12.0,21.0,54,-99.99,,,-99.99,,2013-05-12 11:52:00,
2013-05-12 07:02:00,39.0,24.0,-100.00,NNW,335,12.0,21.0,54,-99.99,,,-99.99,,2013-05-12 12:02:00,
2013-05-12 07:11:00,39.0,24.0,-100.00,NNW,335,12.0,21.0,54,-99.99,,,-99.99,,2013-05-12 12:11:00,
2013-05-12 07:21:00,39.0,24.0,-100.00,NNW,335,12.0,21.0,54,-99.99,,,-99.99,,2013-05-12 12:21:00,
2013-05-12 07:52:00,39.0,24.0,-100.00,NNW,335,12.0,21.0,54,-99.99,,,-99.99,,2013-05-12 12:52:00,
2013-05-12 08:02:00,39.0,24.0,-100.00,NNW,335,12.0,21.0,54,-99.99,,,-99.99,,2013-05-12 13:02:00,
2013-05-12 08:11:00,39.0,24.0,-100.00,NNW,335,12.0,21.0,54,-99.99,,,-99.99,,2013-05-12 13:11:00,
2013-05-12 08:21:00,39.0,24.0,-100.00,NNW,335,12.0,21.0,54,-99.99,,,-99.99,,2013-05-12 13:21:00,
2013-05-12 08:52:00,39.0,24.0,-100.00,NNW,335,12.0,21.0,54,-99.99,,,-99.99,,2013-05-12 13:52:00,
2013-05-12 09:01:00,39.0,24.0,-100.00,NNW,335,12.0,21.0,54,-99.99,,,-99.99,,2013-05-12 14:01:00,
2013-05-12 09:11:00,39.0,24.0,-100.00,NNW,335,12.0,21.0,54,-99.99,,,-99.99,,2013-05-12 14:11:00,
2013-05-12 09:21:00,39.0,24.0,-100.00,NNW,335,12.0,21.0,54,-99.99,,,-99.99,,2013-05-12 14:21:00,
2013-05-12 09:52:00,39.0,24.0,-100.00,NNW,335,12.0,21.0,54,-99.99,,,-99.99,,2013-05-12 14:52:00,
2013-05-12 10:01:00,39.0,24.0,-100.00,NNW,335,12.0,21.0,54,-99.99,,,-99.99,,2013-05-12 15:01:00,
2013-05-12 10:11:00,39.0,24.0,-100.00,NNW,335,12.0,21.0,54,-99.99,,,-99.99,,2013-05-12 15:11:00,
2013-05-12 10:21:00,39.0,24.0,-100.00,NNW,335,12.0,21.0,54,-99.99,,,-99.99,,2013-05-12 15:21:00,
2013-05-12 10:53:00,39.0,24.0,-100.00,NNW,335,12.0,21.0,54,-99.99,,,-99.99,,2013-05-12 15:53:00,
2013-05-12 11:02:00,39.0,24.0,-100.00,NNW,335,12.0,21.0,54,-99.99,,,-99.99,,2013-05-12 16:02:00,
2013-05-12 11:12:00,39.0,24.0,-100.00,NNW,335,12.0,21.0,54,-99.99,,,-99.99,,2013-05-12 16:12:00,
2013-05-12 11:23:00,39.0,24.0,-100.00,NNW,335,12.0,21.0,54,-99.99,,,-99.99,,2013-05-12 16:23:00,
2013-05-12 11:53:00,46.0,20.0,-100.00,WNW,285,7.0,24.0,35,-99.99,,,-99.99,,2013-05-12 16:53:00,
2013-05-12 12:02:00,46.0,20.0,-100.00,WNW,285,7.0,24.0,35,-99.99,,,-99.99,,2013-05-12 17:02:00,
2013-05-12 12:12:00,46.0,20.0,-100.00,WNW,285,7.0,24.0,35,-99.99,,,-99.99,,2013-05-12 17:12:00,
2013-05-12 12:22:00,46.0,20.0,-100.00,WNW,285,7.0,24.0,35,-99.99,,,-99.99,,2013-05-12 17:22:00,
2013-05-12 12:53:00,46.0,18.0,-100.00,NNW,335,11.0,17.0,32,-99.99,,,-99.99,,2013-05-12 17:53:00,
2013-05-12 13:01:00,46.0,18.0,-100.00,NNW,335,11.0,17.0,32,-99.99,,,-99.99,,2013-05-12 18:01:00,
2013-05-12 13:12:00,46.0,18.0,-100.00,NNW,335,11.0,17.0,32,-99.99,,,-99.99,,2013-05-12 18:12:00,
2013-05-12 13:22:00,46.0,18.0,-100.00,NNW,335,11.0,17.0,32,-99.99,,,-99.99,,2013-05-12 18:22:00,
2013-05-12 13:52:00,48.0,17.0,-100.00,West,280,8.0,25.0,29,-99.99,,,-99.99,,2013-05-12 18:52:00,
2013-05-12 14:01:00,48.0,17.0,-100.00,West,280,8.0,25.0,29,-99.99,,,-99.99,,2013-05-12 19:01:00,
2013-05-12 14:11:00,48.0,17.0,-100.00,West,280,8.0,25.0,29,-99.99,,,-99.99,,2013-05-12 19:11:00,
2013-05-12 14:21:00,48.0,17.0,-100.00,West,280,8.0,25.0,29,-99.99,,,-99.99,,2013-05-12 19:21:00,
2013-05-12 14:52:00,53.0,19.0,-100.00,NW,305,7.0,19.0,26,-99.99,,,-99.99,,2013-05-12 19:52:00,
2013-05-12 15:02:00,53.0,19.0,-100.00,NW,305,7.0,19.0,26,-99.99,,,-99.99,,2013-05-12 20:02:00,
2013-05-12 15:11:00,53.0,19.0,-100.00,NW,305,7.0,19.0,26,-99.99,,,-99.99,,2013-05-12 20:11:00,
2013-05-12 15:21:00,53.0,19.0,-100.00,NW,305,7.0,19.0,26,-99.99,,,-99.99,,2013-05-12 20:21:00,
2013-05-12 15:52:00,54.0,18.0,-100.00,West,280,7.0,19.0,25,-99.99,,,-99.99,,2013-05-12 20:52:00,
2013-05-12 16:01:00,54.0,18.0,-100.00,West,280,7.0,19.0,25,-99.99,,,-99.99,,2013-05-12 21:01:00,
2013-05-12 16:11:00,54.0,18.0,-100.00,West,280,7.0,19.0,25,-99.99,,,-99.99,,2013-05-12 21:11:00,
2013-05-12 16:21:00,54.0,18.0,-100.00,West,280,7.0,19.0,25,-99.99,,,-99.99,,2013-05-12 21:21:00,
2013-05-12 16:53:00,52.0,15.0,-100.00,NNW,335,13.0,22.0,23,-99.99,,,-99.99,,2013-05-12 21:53:00,
2013-05-12 17:02:00,52.0,15.0,-100.00,NNW,335,13.0,22.0,23,-99.99,,,-99.99,,2013-05-12 22:02:00,
2013-05-12 17:12:00,52.0,15.0,-100.00,NNW,335,13.0,22.0,23,-99.99,,,-99.99,,2013-05-12 22:12:00,
2013-05-12 17:23:00,52.0,15.0,-100.00,NNW,335,13.0,22.0,23,-99.99,,,-99.99,,2013-05-12 22:23:00,
2013-05-12 17:52:00,52.0,16.0,-100.00,NW,310,12.0,24.0,23,-99.99,,,-99.99,,2013-05-12 22:52:00,
2013-05-12 18:02:00,52.0,16.0,-100.00,NW,310,12.0,24.0,23,-99.99,,,-99.99,,2013-05-12 23:02:00,
2013-05-12 18:12:00,52.0,16.0,-100.00,NW,310,12.0,24.0,23,-99.99,,,-99.99,,2013-05-12 23:12:00,
2013-05-12 18:22:00,52.0,16.0,-100.00,NW,310,12.0,24.0,23,-99.99,,,-99.99,,2013-05-12 23:22:00,
2013-05-12 18:52:00,52.0,15.0,-100.00,NW,310,9.0,16.0,23,-99.99,,,-99.99,,2013-05-12 23:52:00,
2013-05-12 19:01:00,52.0,15.0,-100.00,NW,310,9.0,16.0,23,-99.99,,,-99.99,,2013-05-13 00:01:00,
2013-05-12 19:11:00,52.0,15.0,-100.00,NW,310,9.0,16.0,23,-99.99,,,-99.99,,2013-05-13 00:11:00,
2013-05-12 19:21:00,52.0,15.0,-100.00,NW,310,9.0,16.0,23,-99.99,,,-99.99,,2013-05-13 00:21:00,
2013-05-12 19:52:00,50.0,15.0,-100.00,NNW,340,6.0,14.0,24,-99.99,,,-99.99,,2013-05-13 00:52:00,
2013-05-12 20:01:00,50.0,15.0,-100.00,NNW,340,6.0,14.0,24,-99.99,,,-99.99,,2013-05-13 01:01:00,
2013-05-12 20:11:00,50.0,15.0,-100.00,NNW,340,6.0,14.0,24,-99.99,,,-99.99,,2013-05-13 01:11:00,
2013-05-12 20:22:00,50.0,15.0,-100.00,NNW,340,6.0,14.0,24,-99.99,,,-99.99,,2013-05-13 01:22:00,
2013-05-12 20:52:00,46.0,15.0,-100.00,NNW,330,3.0,7.0,28,-99.99,,,-99.99,,2013-05-13 01:52:00,
2013-05-12 21:01:00,46.0,15.0,-100.00,NNW,330,3.0,7.0,28,-99.99,,,-99.99,,2013-05-13 02:01:00,
2013-05-12 21:11:00,46.0,15.0,-100.00,NNW,330,3.0,7.0,28,-99.99,,,-99.99,,2013-05-13 02:11:00,
2013-05-12 21:21:00,46.0,15.0,-100.00,NNW,330,3.0,7.0,28,-99.99,,,-99.99,,2013-05-13 02:21:00,
2013-05-12 21:52:00,35.0,19.0,-100.00,West,260,0.0,1.0,51,-99.99,,,-99.99,,2013-05-13 02:52:00,
2013-05-12 22:02:00,35.0,19.0,-100.00,West,260,0.0,1.0,51,-99.99,,,-99.99,,2013-05-13 03:02:00,
2013-05-12 22:11:00,35.0,19.0,-100.00,West,260,0.0,1.0,51,-99.99,,,-99.99,,2013-05-13 03:11:00,
2013-05-12 22:21:00,35.0,19.0,-100.00,West,260,0.0,1.0,51,-99.99,,,-99.99,,2013-05-13 03:21:00,
2013-05-12 22:53:00,33.0,21.0,-100.00,NNE,15,1.0,6.0,61,-99.99,,,-99.99,,2013-05-13 03:53:00,
2013-05-12 23:02:00,33.0,21.0,-100.00,NNE,15,1.0,6.0,61,-99.99,,,-99.99,,2013-05-13 04:02:00,
2013-05-12 23:12:00,33.0,21.0,-100.00,NNE,15,1.0,6.0,61,-99.99,,,-99.99,,2013-05-13 04:12:00,
2013-05-12 23:23:00,33.0,21.0,-100.00,NNE,15,1.0,6.0,61,-99.99,,,-99.99,,2013-05-13 04:23:00,
2013-05-12 23:53:00,30.0,20.0,-100.00,NW,315,1.0,2.0,66,-99.99,,,-99.99,,2013-05-13 04:53:00,